Time;durP1;ratioP1;P1;durP2;ratioP2;P2;SDS_P1;SDS_P2;PMS_P1;PMS_P2;Temp;Humidity;BMP_temperature;BMP_pressure;BME280_temperature;BME280_humidity;BME280_pressure;Samples;Min_cycle;Max_cycle;Signal;HPM_P1;HPM_P2
2023/03/31 00:02:13;;;;;;;17.17;10.63;;;;;;;;;;4993662;28;20054;-62
2023/03/31 00:04:44;;;;;;;15.30;9.20;;;;;;;;;;4994015;28;20100;-62
2023/03/31 00:07:13;;;;;;;15.75;9.07;;;;;;;;;;4993311;28;20145;-63
2023/03/31 00:09:44;;;;;;;17.70;9.60;;;;;;;;;;5006288;28;20056;-63
2023/03/31 00:12:12;;;;;;;15.27;8.77;;;;;;;;;;5012946;28;20090;-64
2023/03/31 00:14:39;;;;;;;16.85;9.63;;;;;;;;;;5013191;28;20058;-64
2023/03/31 00:17:07;;;;;;;16.13;9.68;;;;;;;;;;5013299;28;20410;-65
2023/03/31 00:19:34;;;;;;;14.20;9.85;;;;;;;;;;4997482;28;20086;-63
2023/03/31 00:22:01;;;;;;;16.13;10.85;;;;;;;;;;5005614;28;20054;-63
2023/03/31 00:24:31;;;;;;;15.68;8.73;;;;;;;;;;5009298;28;20045;-64
2023/03/31 00:26:58;;;;;;;15.32;9.40;;;;;;;;;;5011087;28;20081;-63
2023/03/31 00:29:25;;;;;;;16.48;9.55;;;;;;;;;;5011900;28;20046;-62
2023/03/31 00:31:52;;;;;;;14.20;8.50;;;;;;;;;;5006498;28;20053;-62
2023/03/31 00:34:20;;;;;;;14.55;9.73;;;;;;;;;;5012281;28;20104;-62
2023/03/31 00:36:47;;;;;;;18.35;10.27;;;;;;;;;;5012850;28;20046;-63
2023/03/31 00:39:17;;;;;;;13.27;8.52;;;;;;;;;;4995328;28;20066;-64
2023/03/31 00:41:45;;;;;;;16.13;9.18;;;;;;;;;;4993306;28;20145;-63
2023/03/31 00:44:17;;;;;;;15.10;9.93;;;;;;;;;;4992949;28;20388;-62
2023/03/31 00:46:50;;;;;;;14.20;9.25;;;;;;;;;;4992787;28;20055;-60
2023/03/31 00:49:25;;;;;;;13.88;8.68;;;;;;;;;;4992560;28;20046;-62
2023/03/31 00:51:54;;;;;;;16.55;9.77;;;;;;;;;;4996176;28;20502;-62
2023/03/31 00:54:24;;;;;;;16.08;9.73;;;;;;;;;;4993141;28;20054;-62
2023/03/31 00:56:54;;;;;;;14.20;9.15;;;;;;;;;;4993297;28;20089;-63
2023/03/31 00:59:26;;;;;;;16.60;8.57;;;;;;;;;;4993055;28;20100;-62
2023/03/31 01:01:54;;;;;;;18.13;8.98;;;;;;;;;;4998600;28;20422;-62
2023/03/31 01:04:21;;;;;;;14.73;9.23;;;;;;;;;;5012129;28;20459;-62
2023/03/31 01:06:59;;;;;;;14.75;9.35;;;;;;;;;;5012379;28;20506;-62
2023/03/31 01:09:33;;;;;;;17.83;9.60;;;;;;;;;;5012022;28;20550;-62
2023/03/31 01:12:03;;;;;;;16.52;9.15;;;;;;;;;;5011969;28;20052;-61
2023/03/31 01:14:31;;;;;;;13.98;9.18;;;;;;;;;;5003851;28;20105;-62
2023/03/31 01:16:57;;;;;;;11.82;8.77;;;;;;;;;;4992498;28;20046;-61
2023/03/31 01:19:36;;;;;;;17.75;10.45;;;;;;;;;;5006514;28;20370;-62
2023/03/31 01:22:45;;;;;;;15.32;9.43;;;;;;;;;;5016504;28;20057;-62
2023/03/31 01:25:53;;;;;;;16.55;8.70;;;;;;;;;;4981184;28;20053;-62
2023/03/31 01:28:33;;;;;;;18.65;10.85;;;;;;;;;;5014216;28;20042;-62
2023/03/31 01:31:44;;;;;;;14.50;8.93;;;;;;;;;;5015812;28;20054;-62
2023/03/31 01:34:55;;;;;;;13.52;9.30;;;;;;;;;;5016435;28;20290;-62
2023/03/31 01:37:55;;;;;;;12.38;9.38;;;;;;;;;;4971878;28;20054;-61
2023/03/31 01:40:47;;;;;;;17.63;9.73;;;;;;;;;;4974064;28;20522;-61
2023/03/31 01:43:20;;;;;;;15.05;9.15;;;;;;;;;;4994499;28;20058;-63
2023/03/31 01:45:56;;;;;;;15.30;9.25;;;;;;;;;;4996178;28;20072;-63
2023/03/31 01:48:32;;;;;;;13.20;8.20;;;;;;;;;;4996532;28;20101;-63
2023/03/31 01:51:04;;;;;;;13.57;8.40;;;;;;;;;;4999640;28;20050;-63
2023/03/31 01:53:36;;;;;;;14.80;8.38;;;;;;;;;;5015434;28;20046;-62
2023/03/31 01:56:08;;;;;;;14.60;8.40;;;;;;;;;;5008021;28;20049;-62
2023/03/31 01:58:39;;;;;;;12.85;8.20;;;;;;;;;;4995376;28;20054;-62
2023/03/31 02:01:13;;;;;;;12.25;8.35;;;;;;;;;;4995574;28;20109;-63
2023/03/31 02:03:45;;;;;;;12.90;7.35;;;;;;;;;;4995614;28;20059;-62
2023/03/31 02:06:17;;;;;;;12.57;8.60;;;;;;;;;;4999219;28;20458;-63
2023/03/31 02:08:47;;;;;;;14.18;7.10;;;;;;;;;;5014965;28;20104;-61
2023/03/31 02:11:16;;;;;;;13.30;6.65;;;;;;;;;;5015139;28;20123;-63
2023/03/31 02:13:46;;;;;;;12.05;7.13;;;;;;;;;;5015087;28;20108;-63
2023/03/31 02:16:17;;;;;;;10.93;7.10;;;;;;;;;;5013439;28;20056;-61
2023/03/31 02:18:47;;;;;;;10.10;6.95;;;;;;;;;;5002956;28;20053;-62
2023/03/31 02:21:15;;;;;;;12.23;7.32;;;;;;;;;;5014605;28;20104;-63
2023/03/31 02:23:44;;;;;;;11.90;8.32;;;;;;;;;;5015309;28;20054;-63
2023/03/31 02:26:16;;;;;;;10.25;7.35;;;;;;;;;;5000679;28;20062;-63
2023/03/31 02:28:43;;;;;;;13.00;7.32;;;;;;;;;;5014553;28;20377;-63
2023/03/31 02:31:23;;;;;;;12.25;7.85;;;;;;;;;;5014032;28;20057;-63
2023/03/31 02:33:50;;;;;;;11.38;8.85;;;;;;;;;;5015080;28;20086;-62
2023/03/31 02:36:18;;;;;;;11.13;7.80;;;;;;;;;;5014605;28;20104;-63
2023/03/31 02:38:51;;;;;;;13.65;8.10;;;;;;;;;;4998626;28;20058;-61
2023/03/31 02:41:19;;;;;;;14.73;9.02;;;;;;;;;;4995319;28;20058;-61
2023/03/31 02:43:46;;;;;;;13.73;8.57;;;;;;;;;;4995285;28;20066;-61
2023/03/31 02:46:13;;;;;;;12.88;9.07;;;;;;;;;;4995165;28;20049;-62
2023/03/31 02:48:45;;;;;;;14.80;10.02;;;;;;;;;;5006454;28;20046;-63
2023/03/31 02:51:32;;;;;;;13.95;8.85;;;;;;;;;;5007727;28;20070;-63
2023/03/31 02:54:34;;;;;;;15.77;8.55;;;;;;;;;;4994834;28;20054;-63
2023/03/31 02:57:20;;;;;;;12.30;7.65;;;;;;;;;;4958780;28;20058;-62
2023/03/31 03:00:00;;;;;;;11.82;7.60;;;;;;;;;;5011401;28;20454;-62
2023/03/31 03:02:35;;;;;;;14.05;6.85;;;;;;;;;;5014725;28;20472;-63
2023/03/31 03:05:13;;;;;;;12.75;8.25;;;;;;;;;;5014309;28;20061;-63
2023/03/31 03:07:48;;;;;;;12.95;7.65;;;;;;;;;;5014232;28;20046;-63
2023/03/31 03:10:24;;;;;;;11.05;7.72;;;;;;;;;;4995574;28;20061;-62
2023/03/31 03:12:58;;;;;;;13.77;8.38;;;;;;;;;;4994984;28;20042;-62
2023/03/31 03:15:30;;;;;;;13.32;8.10;;;;;;;;;;4994693;28;20108;-62
2023/03/31 03:17:58;;;;;;;12.50;7.65;;;;;;;;;;4995968;28;20054;-62
2023/03/31 03:20:26;;;;;;;12.05;7.25;;;;;;;;;;5013293;28;20388;-63
2023/03/31 03:22:52;;;;;;;14.15;6.38;;;;;;;;;;4994673;28;20118;-63
2023/03/31 03:25:20;;;;;;;11.95;5.55;;;;;;;;;;5013209;28;20057;-62
2023/03/31 03:27:47;;;;;;;12.98;6.20;;;;;;;;;;5000444;28;20141;-63
2023/03/31 03:30:15;;;;;;;11.63;5.93;;;;;;;;;;4993943;28;20061;-61
2023/03/31 03:32:42;;;;;;;12.40;6.40;;;;;;;;;;4994175;28;20142;-63
2023/03/31 03:35:10;;;;;;;9.18;5.97;;;;;;;;;;5009407;28;20388;-63
2023/03/31 03:37:36;;;;;;;11.27;6.32;;;;;;;;;;5013445;28;20077;-63
2023/03/31 03:40:04;;;;;;;9.73;5.75;;;;;;;;;;5012909;28;20061;-63
2023/03/31 03:42:32;;;;;;;11.98;6.40;;;;;;;;;;5012864;28;20054;-63
2023/03/31 03:44:58;;;;;;;10.82;5.97;;;;;;;;;;5004841;28;20054;-62
2023/03/31 03:47:27;;;;;;;11.80;6.13;;;;;;;;;;5001506;28;20045;-63
2023/03/31 03:49:53;;;;;;;13.90;6.40;;;;;;;;;;5004385;28;20043;-63
2023/03/31 03:52:20;;;;;;;12.27;6.38;;;;;;;;;;4993658;28;20492;-61
2023/03/31 03:54:48;;;;;;;12.90;7.22;;;;;;;;;;5005078;28;20188;-63
2023/03/31 03:57:15;;;;;;;12.93;6.75;;;;;;;;;;5012675;28;20058;-63
2023/03/31 03:59:42;;;;;;;11.40;5.85;;;;;;;;;;5013189;28;20513;-63
2023/03/31 04:02:09;;;;;;;11.02;5.70;;;;;;;;;;5013147;28;20058;-61
2023/03/31 04:04:37;;;;;;;13.35;6.80;;;;;;;;;;5012049;28;20053;-63
2023/03/31 04:07:04;;;;;;;9.40;5.95;;;;;;;;;;5005920;28;20060;-62
2023/03/31 04:09:31;;;;;;;11.75;6.32;;;;;;;;;;5013027;28;20061;-62
2023/03/31 04:11:58;;;;;;;10.63;6.70;;;;;;;;;;5012765;28;20143;-63
2023/03/31 04:14:25;;;;;;;14.63;7.13;;;;;;;;;;5012976;28;20057;-62
2023/03/31 04:16:55;;;;;;;13.65;7.60;;;;;;;;;;5004190;28;20077;-63
2023/03/31 04:19:24;;;;;;;15.57;8.90;;;;;;;;;;5005874;28;20053;-61
2023/03/31 04:21:57;;;;;;;20.23;10.60;;;;;;;;;;5012515;28;20498;-63
2023/03/31 04:24:29;;;;;;;16.02;8.88;;;;;;;;;;5012549;28;20056;-62
2023/03/31 04:26:56;;;;;;;13.77;8.20;;;;;;;;;;4999639;28;20133;-62
2023/03/31 04:29:25;;;;;;;10.55;7.20;;;;;;;;;;4992674;28;20085;-62
2023/03/31 04:31:52;;;;;;;13.82;7.90;;;;;;;;;;4992675;28;20062;-61
2023/03/31 04:34:25;;;;;;;15.23;9.27;;;;;;;;;;4992737;28;20070;-63
2023/03/31 04:36:55;;;;;;;15.35;9.05;;;;;;;;;;5001473;28;20049;-64
2023/03/31 04:39:25;;;;;;;17.05;9.00;;;;;;;;;;5012450;28;20045;-63
2023/03/31 04:41:52;;;;;;;16.92;10.00;;;;;;;;;;5012151;28;20088;-63
2023/03/31 04:44:19;;;;;;;14.85;10.02;;;;;;;;;;4993799;28;20062;-63
2023/03/31 04:46:46;;;;;;;18.42;10.15;;;;;;;;;;4997198;28;20046;-63
2023/03/31 04:49:14;;;;;;;18.10;10.52;;;;;;;;;;5001068;28;20400;-63
2023/03/31 04:51:41;;;;;;;14.10;9.63;;;;;;;;;;5009535;28;20046;-61
2023/03/31 04:54:09;;;;;;;13.50;8.43;;;;;;;;;;5007290;28;20121;-62
2023/03/31 04:56:36;;;;;;;12.88;7.47;;;;;;;;;;4992141;28;20523;-63
2023/03/31 04:59:03;;;;;;;14.07;8.02;;;;;;;;;;4991865;28;20058;-62
2023/03/31 05:01:32;;;;;;;14.75;8.55;;;;;;;;;;4996523;28;20076;-63
2023/03/31 05:03:59;;;;;;;15.80;9.23;;;;;;;;;;5012367;28;20146;-63
2023/03/31 05:06:26;;;;;;;14.05;9.07;;;;;;;;;;5010959;28;20108;-62
2023/03/31 05:08:53;;;;;;;11.38;7.65;;;;;;;;;;5006565;28;20083;-63
2023/03/31 05:11:21;;;;;;;15.60;9.20;;;;;;;;;;5011475;28;20108;-61
2023/03/31 05:13:48;;;;;;;12.80;7.25;;;;;;;;;;5011335;28;20120;-63
2023/03/31 05:16:16;;;;;;;14.05;7.40;;;;;;;;;;5011854;28;20046;-63
2023/03/31 05:18:43;;;;;;;15.25;7.45;;;;;;;;;;5002447;28;20061;-63
2023/03/31 05:21:14;;;;;;;10.60;7.82;;;;;;;;;;5006592;28;20062;-63
2023/03/31 05:23:41;;;;;;;11.48;7.43;;;;;;;;;;4991973;28;20488;-63
2023/03/31 05:26:09;;;;;;;11.93;7.68;;;;;;;;;;4992128;28;20101;-63
2023/03/31 05:28:38;;;;;;;13.02;7.22;;;;;;;;;;4993022;28;20080;-61
2023/03/31 05:31:06;;;;;;;10.40;7.57;;;;;;;;;;4991971;28;20046;-63
2023/03/31 05:33:33;;;;;;;16.60;8.07;;;;;;;;;;5011697;23;20105;-77
2023/03/31 05:36:00;;;;;;;12.52;7.68;;;;;;;;;;5009366;28;20077;-78
2023/03/31 05:38:30;;;;;;;12.00;7.43;;;;;;;;;;5001975;28;20089;-77
2023/03/31 05:41:01;;;;;;;17.83;8.50;;;;;;;;;;5008983;28;20045;-78
2023/03/31 05:43:30;;;;;;;15.15;8.25;;;;;;;;;;4998904;28;20054;-79
2023/03/31 05:45:59;;;;;;;13.70;8.48;;;;;;;;;;5010200;28;20049;-77
2023/03/31 05:48:25;;;;;;;12.77;7.70;;;;;;;;;;5010633;28;20048;-79
2023/03/31 05:50:55;;;;;;;13.93;7.82;;;;;;;;;;5012281;28;20100;-78
2023/03/31 05:53:22;;;;;;;13.70;9.55;;;;;;;;;;5011455;28;20129;-78
2023/03/31 05:55:48;;;;;;;12.60;7.70;;;;;;;;;;5011326;28;20045;-78
2023/03/31 05:58:15;;;;;;;14.45;8.00;;;;;;;;;;5011917;28;20124;-79
2023/03/31 06:00:44;;;;;;;14.07;7.85;;;;;;;;;;5014766;28;20375;-80
2023/03/31 06:03:12;;;;;;;12.95;8.30;;;;;;;;;;5018280;28;20437;-79
2023/03/31 06:05:40;;;;;;;13.23;8.30;;;;;;;;;;5020600;28;20072;-77
2023/03/31 06:08:07;;;;;;;14.20;8.57;;;;;;;;;;5022995;28;20060;-78
2023/03/31 06:10:34;;;;;;;9.95;7.28;;;;;;;;;;5020768;28;20132;-77
2023/03/31 06:13:01;;;;;;;14.40;8.27;;;;;;;;;;5013903;28;20129;-77
2023/03/31 06:15:28;;;;;;;14.30;8.82;;;;;;;;;;5013588;28;20044;-77
2023/03/31 06:17:54;;;;;;;15.30;8.68;;;;;;;;;;5010724;28;20129;-78
2023/03/31 06:20:22;;;;;;;13.10;8.25;;;;;;;;;;5013677;28;20493;-79
2023/03/31 06:22:49;;;;;;;13.52;8.85;;;;;;;;;;5015848;28;20085;-77
2023/03/31 06:25:16;;;;;;;15.27;8.32;;;;;;;;;;5013752;28;20125;-77
2023/03/31 06:27:42;;;;;;;13.52;8.48;;;;;;;;;;5013638;28;20075;-78
2023/03/31 06:30:10;;;;;;;13.40;8.35;;;;;;;;;;5010319;28;20056;-78
2023/03/31 06:32:36;;;;;;;14.48;8.93;;;;;;;;;;5010379;28;20042;-78
2023/03/31 06:35:03;;;;;;;14.43;8.93;;;;;;;;;;5012922;28;20574;-76
2023/03/31 06:37:31;;;;;;;14.57;8.60;;;;;;;;;;5014961;28;20186;-77
2023/03/31 06:39:58;;;;;;;15.18;8.32;;;;;;;;;;5013576;28;20080;-77
2023/03/31 06:42:24;;;;;;;15.23;8.80;;;;;;;;;;5012887;28;20501;-77
2023/03/31 06:44:51;;;;;;;15.32;9.55;;;;;;;;;;5015378;28;20052;-77
2023/03/31 06:47:17;;;;;;;18.15;10.30;;;;;;;;;;5009528;28;20080;-78
2023/03/31 06:49:44;;;;;;;14.18;8.98;;;;;;;;;;5012825;28;20046;-77
2023/03/31 06:52:11;;;;;;;14.35;9.23;;;;;;;;;;5012674;28;20038;-76
2023/03/31 06:54:39;;;;;;;13.93;8.35;;;;;;;;;;5013608;28;20133;-78
2023/03/31 06:57:05;;;;;;;14.00;8.10;;;;;;;;;;5013697;28;20399;-77
2023/03/31 06:59:32;;;;;;;12.68;7.70;;;;;;;;;;5012835;28;20129;-77
2023/03/31 07:01:58;;;;;;;12.40;8.52;;;;;;;;;;5012766;28;20046;-78
2023/03/31 07:04:25;;;;;;;12.77;7.95;;;;;;;;;;5013350;28;20061;-78
2023/03/31 07:06:52;;;;;;;14.13;7.57;;;;;;;;;;5013974;28;20125;-78
2023/03/31 07:09:20;;;;;;;12.43;7.82;;;;;;;;;;5012909;28;20050;-79
2023/03/31 07:11:48;;;;;;;14.95;7.97;;;;;;;;;;5013551;28;20543;-78
2023/03/31 07:14:15;;;;;;;12.18;7.78;;;;;;;;;;5013340;28;20064;-79
2023/03/31 07:16:42;;;;;;;11.93;7.15;;;;;;;;;;5012309;28;20129;-77
2023/03/31 07:19:09;;;;;;;12.80;7.35;;;;;;;;;;5012533;28;20126;-77
2023/03/31 07:21:36;;;;;;;14.38;7.50;;;;;;;;;;5010785;28;20400;-77
2023/03/31 07:24:03;;;;;;;12.30;7.60;;;;;;;;;;5009791;28;20125;-77
2023/03/31 07:26:29;;;;;;;10.73;7.28;;;;;;;;;;5010558;28;20145;-76
2023/03/31 07:28:58;;;;;;;13.30;7.55;;;;;;;;;;5011883;28;20070;-79
2023/03/31 07:31:25;;;;;;;13.45;7.50;;;;;;;;;;5012347;28;20042;-79
2023/03/31 07:33:51;;;;;;;13.25;8.60;;;;;;;;;;5013319;28;20046;-78
2023/03/31 07:36:18;;;;;;;12.90;7.30;;;;;;;;;;5014160;28;20088;-78
2023/03/31 07:38:47;;;;;;;12.57;7.75;;;;;;;;;;5015309;28;20050;-78
2023/03/31 07:41:16;;;;;;;13.75;8.35;;;;;;;;;;5013985;28;20045;-77
2023/03/31 07:43:43;;;;;;;12.68;8.15;;;;;;;;;;5013347;28;20421;-77
2023/03/31 07:46:17;;;;;;;16.35;8.30;;;;;;;;;;5011160;28;20125;-77
2023/03/31 07:48:45;;;;;;;15.00;9.13;;;;;;;;;;4995111;28;20056;-76
2023/03/31 07:51:12;;;;;;;12.48;9.23;;;;;;;;;;4995034;28;20053;-77
2023/03/31 07:53:38;;;;;;;14.60;8.55;;;;;;;;;;4995081;28;20042;-78
2023/03/31 07:56:05;;;;;;;13.50;7.35;;;;;;;;;;4995420;28;20054;-79
2023/03/31 07:58:32;;;;;;;14.63;9.10;;;;;;;;;;4995092;28;20133;-77
2023/03/31 08:00:59;;;;;;;16.17;8.75;;;;;;;;;;4995176;28;20413;-78
2023/03/31 08:03:28;;;;;;;16.40;8.30;;;;;;;;;;4994846;28;20058;-78
2023/03/31 08:05:55;;;;;;;14.38;7.88;;;;;;;;;;4994873;28;20142;-78
2023/03/31 08:08:21;;;;;;;12.98;7.85;;;;;;;;;;4995764;28;20409;-79
2023/03/31 08:10:48;;;;;;;14.30;9.13;;;;;;;;;;5009215;28;20042;-78
2023/03/31 08:13:15;;;;;;;14.15;7.82;;;;;;;;;;5014116;28;20081;-78
2023/03/31 08:15:42;;;;;;;13.13;8.02;;;;;;;;;;5013852;28;20050;-78
2023/03/31 08:18:08;;;;;;;16.02;8.25;;;;;;;;;;5013736;28;20069;-77
2023/03/31 08:20:38;;;;;;;14.73;8.82;;;;;;;;;;5013252;28;20082;-77
2023/03/31 08:23:07;;;;;;;12.88;8.23;;;;;;;;;;5013500;28;20050;-78
2023/03/31 08:25:34;;;;;;;14.07;9.07;;;;;;;;;;5014122;28;20062;-78
2023/03/31 08:28:01;;;;;;;13.00;7.65;;;;;;;;;;5014360;28;20129;-79
2023/03/31 08:30:27;;;;;;;13.82;7.82;;;;;;;;;;5014139;28;20056;-78
2023/03/31 08:32:54;;;;;;;12.93;8.20;;;;;;;;;;5013508;28;20057;-78
2023/03/31 08:35:21;;;;;;;11.45;7.72;;;;;;;;;;5014690;28;20500;-78
2023/03/31 08:37:49;;;;;;;12.90;8.27;;;;;;;;;;5014084;28;20046;-79
2023/03/31 08:40:20;;;;;;;15.02;8.55;;;;;;;;;;5012993;28;20053;-79
2023/03/31 08:42:50;;;;;;;13.13;8.05;;;;;;;;;;5013433;28;20096;-78
2023/03/31 08:45:20;;;;;;;14.02;7.72;;;;;;;;;;5013628;28;20137;-77
2023/03/31 08:47:50;;;;;;;13.95;7.35;;;;;;;;;;5012402;28;20042;-77
2023/03/31 08:50:21;;;;;;;11.55;7.53;;;;;;;;;;5012323;28;20140;-77
2023/03/31 08:52:51;;;;;;;;;;;;;;;;;;5014367;28;20056;-77
2023/03/31 08:55:25;;;;;;;9.52;6.40;;;;;;;;;;5012421;28;19927;-77
2023/03/31 08:57:58;;;;;;;11.35;5.93;;;;;;;;;;5012547;28;20046;-78
2023/03/31 09:00:25;;;;;;;9.00;6.22;;;;;;;;;;5012075;28;20056;-77
2023/03/31 09:03:00;;;;;;;9.95;5.25;;;;;;;;;;5012436;28;20072;-80
2023/03/31 09:05:44;;;;;;;9.95;5.53;;;;;;;;;;5016257;28;20046;-81
2023/03/31 09:08:19;;;;;;;8.38;4.82;;;;;;;;;;5015771;28;20404;-80
2023/03/31 09:10:54;;;;;;;8.68;4.65;;;;;;;;;;5003507;28;20053;-78
2023/03/31 09:13:56;;;;;;;6.88;5.07;;;;;;;;;;4998407;28;20064;-77
2023/03/31 09:16:26;;;;;;;7.47;4.72;;;;;;;;;;4985160;28;20069;-78
2023/03/31 09:18:55;;;;;;;6.70;4.57;;;;;;;;;;4993177;28;20047;-77
2023/03/31 09:21:25;;;;;;;6.60;3.95;;;;;;;;;;4995494;28;20047;-78
2023/03/31 09:23:58;;;;;;;9.82;4.68;;;;;;;;;;4995917;28;20137;-77
2023/03/31 09:26:31;;;;;;;8.05;4.97;;;;;;;;;;4999577;28;20052;-77
2023/03/31 09:29:00;;;;;;;10.23;4.57;;;;;;;;;;5004422;28;20070;-77
2023/03/31 09:31:27;;;;;;;8.25;4.57;;;;;;;;;;5003258;28;20078;-78
2023/03/31 09:34:00;;;;;;;8.30;4.20;;;;;;;;;;5003592;28;20074;-78
2023/03/31 09:36:27;;;;;;;6.82;4.00;;;;;;;;;;4999526;28;20105;-77
2023/03/31 09:38:55;;;;;;;9.70;4.78;;;;;;;;;;5002721;28;20077;-76
2023/03/31 09:41:22;;;;;;;7.75;3.85;;;;;;;;;;5005475;28;20049;-77
2023/03/31 09:43:50;;;;;;;6.45;3.90;;;;;;;;;;5006175;28;20493;-78
2023/03/31 09:46:20;;;;;;;8.00;3.78;;;;;;;;;;5006727;28;20046;-78
2023/03/31 09:48:51;;;;;;;;;;;;;;;;;;5018493;28;20073;-79
2023/03/31 09:51:23;;;;;;;6.43;3.42;;;;;;;;;;5020935;28;20024;-78
2023/03/31 09:53:57;;;;;;;5.70;3.28;;;;;;;;;;5015619;28;20145;-79
2023/03/31 09:56:44;;;;;;;5.57;3.45;;;;;;;;;;5021205;28;20137;-78
2023/03/31 09:59:15;;;;;;;6.20;2.92;;;;;;;;;;5019118;28;20054;-79
2023/03/31 10:01:44;;;;;;;6.72;3.67;;;;;;;;;;5002190;28;20054;-78
2023/03/31 10:04:19;;;;;;;5.38;3.20;;;;;;;;;;5002382;28;20054;-80
2023/03/31 10:06:47;;;;;;;5.00;3.05;;;;;;;;;;5000590;28;20108;-79
2023/03/31 10:09:16;;;;;;;5.65;2.60;;;;;;;;;;5011959;28;20060;-79
2023/03/31 10:11:54;;;;;;;7.00;3.45;;;;;;;;;;5004003;28;20045;-78
2023/03/31 10:14:26;;;;;;;5.75;3.15;;;;;;;;;;5019881;28;20050;-77
2023/03/31 10:16:56;;;;;;;6.05;3.20;;;;;;;;;;5019985;28;20054;-79
2023/03/31 10:19:25;;;;;;;6.18;3.22;;;;;;;;;;5007344;28;20117;-78
2023/03/31 10:21:58;;;;;;;7.88;3.38;;;;;;;;;;5010554;28;20401;-78
2023/03/31 10:24:27;;;;;;;8.50;3.10;;;;;;;;;;5018887;28;20054;-78
2023/03/31 10:26:55;;;;;;;7.07;3.40;;;;;;;;;;5017481;28;20038;-77
2023/03/31 10:29:28;;;;;;;5.65;3.25;;;;;;;;;;5015881;28;20050;-77
2023/03/31 10:31:55;;;;;;;7.38;2.88;;;;;;;;;;5016489;28;20128;-77
2023/03/31 10:34:23;;;;;;;7.50;3.50;;;;;;;;;;5017063;28;20133;-78
2023/03/31 10:36:51;;;;;;;5.05;2.90;;;;;;;;;;5018673;28;20487;-78
2023/03/31 10:39:19;;;;;;;7.22;3.40;;;;;;;;;;5019288;28;20125;-78
2023/03/31 10:41:52;;;;;;;7.20;3.67;;;;;;;;;;5012883;28;20246;-78
2023/03/31 10:44:34;;;;;;;6.03;3.67;;;;;;;;;;5021680;28;20049;-78
2023/03/31 10:47:06;;;;;;;8.02;3.58;;;;;;;;;;5020545;28;20056;-77
2023/03/31 10:49:39;;;;;;;8.95;4.43;;;;;;;;;;5019522;28;20128;-79
2023/03/31 10:52:16;;;;;;;7.38;3.95;;;;;;;;;;5019680;28;20068;-80
2023/03/31 10:54:47;;;;;;;7.30;3.90;;;;;;;;;;5000212;28;20484;-78
2023/03/31 10:57:16;;;;;;;6.57;4.15;;;;;;;;;;5008624;28;20083;-78
2023/03/31 11:00:00;;;;;;;10.07;4.55;;;;;;;;;;5019359;28;20045;-78
2023/03/31 11:03:01;;;;;;;9.00;3.65;;;;;;;;;;5014407;28;20054;-78
2023/03/31 11:05:33;;;;;;;11.85;4.68;;;;;;;;;;5018734;28;20140;-78
2023/03/31 11:08:12;;;;;;;9.15;4.90;;;;;;;;;;5017709;28;20152;-79
2023/03/31 11:10:59;;;;;;;6.38;4.20;;;;;;;;;;5015077;28;20058;-78
2023/03/31 11:13:36;;;;;;;7.93;4.28;;;;;;;;;;5018171;28;20053;-78
2023/03/31 11:16:10;;;;;;;7.90;4.55;;;;;;;;;;5018249;28;20053;-79
2023/03/31 11:18:54;;;;;;;8.35;3.78;;;;;;;;;;5010270;28;20101;-78
2023/03/31 11:21:27;;;;;;;6.65;4.13;;;;;;;;;;5018713;28;20050;-79
2023/03/31 11:24:07;;;;;;;8.38;4.03;;;;;;;;;;5021601;28;20073;-78
2023/03/31 11:26:45;;;;;;;7.75;2.83;;;;;;;;;;5022202;28;20144;-79
2023/03/31 11:29:26;;;;;;;7.28;2.40;;;;;;;;;;5009007;28;20078;-78
2023/03/31 11:32:02;;;;;;;4.10;1.60;;;;;;;;;;5016239;28;20070;-78
2023/03/31 11:34:56;;;;;;;3.63;1.80;;;;;;;;;;5017833;28;20088;-78
2023/03/31 11:37:34;;;;;;;3.10;1.52;;;;;;;;;;5011213;28;20046;-78
2023/03/31 11:40:27;;;;;;;4.70;1.80;;;;;;;;;;5014534;28;20046;-77
2023/03/31 11:43:00;;;;;;;12.50;3.45;;;;;;;;;;5016014;28;20046;-78
2023/03/31 11:45:31;;;;;;;3.88;1.45;;;;;;;;;;5015144;28;20476;-78
2023/03/31 11:48:03;;;;;;;3.30;2.05;;;;;;;;;;5015328;28;20125;-77
2023/03/31 11:50:33;;;;;;;3.05;1.67;;;;;;;;;;5014484;28;20240;-78
2023/03/31 11:53:05;;;;;;;3.92;1.90;;;;;;;;;;5012097;28;20045;-76
2023/03/31 11:55:32;;;;;;;4.50;1.73;;;;;;;;;;5013769;28;20050;-78
2023/03/31 11:58:04;;;;;;;4.25;2.15;;;;;;;;;;4995197;28;20105;-79
2023/03/31 12:00:36;;;;;;;4.40;1.80;;;;;;;;;;5007801;28;20042;-79
2023/03/31 12:03:11;;;;;;;3.40;1.83;;;;;;;;;;5008415;28;20062;-78
2023/03/31 12:05:41;;;;;;;4.78;1.95;;;;;;;;;;5001752;28;20085;-81
2023/03/31 12:08:12;;;;;;;;;;;;;;;;;;5013561;28;20412;-79
2023/03/31 12:10:43;;;;;;;5.03;2.05;;;;;;;;;;4995691;28;19928;-79
2023/03/31 12:13:35;;;;;;;4.65;1.70;;;;;;;;;;5002251;28;20046;-79
2023/03/31 12:16:09;;;;;;;5.72;1.80;;;;;;;;;;5013046;28;20080;-81
2023/03/31 12:18:41;;;;;;;4.55;1.70;;;;;;;;;;5016300;28;20062;-79
2023/03/31 12:21:10;;;;;;;4.55;1.70;;;;;;;;;;5015819;28;20508;-80
2023/03/31 12:23:42;;;;;;;3.00;1.42;;;;;;;;;;5015280;28;20129;-79
2023/03/31 12:26:19;;;;;;;3.88;1.75;;;;;;;;;;5015102;28;20129;-79
2023/03/31 12:28:47;;;;;;;6.15;2.38;;;;;;;;;;5007556;28;20042;-78
2023/03/31 12:31:20;;;;;;;5.88;2.55;;;;;;;;;;5002136;28;20145;-79
2023/03/31 12:33:54;;;;;;;4.32;1.70;;;;;;;;;;5002620;28;20125;-79
2023/03/31 12:36:33;;;;;;;3.83;1.80;;;;;;;;;;4996110;28;20505;-81
2023/03/31 12:39:12;;;;;;;4.13;2.28;;;;;;;;;;5005325;28;20161;-78
2023/03/31 12:41:47;;;;;;;4.35;2.03;;;;;;;;;;5017285;28;20049;-79
2023/03/31 12:44:44;;;;;;;4.25;1.70;;;;;;;;;;5019048;28;20424;-79
2023/03/31 12:47:41;;;;;;;4.47;2.03;;;;;;;;;;5005219;28;20056;-79
2023/03/31 12:50:45;;;;;;;4.10;1.83;;;;;;;;;;5017564;28;20085;-80
2023/03/31 12:53:21;;;;;;;5.53;1.80;;;;;;;;;;4987058;28;20081;-80
2023/03/31 12:55:50;;;;;;;3.75;1.70;;;;;;;;;;5015919;28;20060;-80
2023/03/31 12:58:38;;;;;;;4.40;2.10;;;;;;;;;;5016062;28;20386;-81
2023/03/31 13:01:09;;;;;;;5.07;2.35;;;;;;;;;;5020509;28;20492;-80
2023/03/31 13:03:42;;;;;;;4.45;1.98;;;;;;;;;;5018201;28;20052;-81
2023/03/31 13:06:12;;;;;;;6.32;2.78;;;;;;;;;;5017316;28;20113;-80
2023/03/31 13:08:53;;;;;;;7.18;2.33;;;;;;;;;;5016029;28;20132;-80
2023/03/31 13:11:22;;;;;;;4.97;2.80;;;;;;;;;;5015291;28;20136;-79
2023/03/31 13:13:59;;;;;;;5.20;2.00;;;;;;;;;;5021036;28;20451;-79
2023/03/31 13:16:26;;;;;;;6.47;2.30;;;;;;;;;;5022562;28;20081;-79
2023/03/31 13:18:55;;;;;;;3.55;1.13;;;;;;;;;;5021936;28;20117;-79
2023/03/31 13:21:23;;;;;;;3.38;1.20;;;;;;;;;;5022127;28;20056;-80
2023/03/31 13:23:51;;;;;;;3.25;1.02;;;;;;;;;;5022600;28;20046;-79
2023/03/31 13:26:41;;;;;;;2.28;0.90;;;;;;;;;;5018255;28;20500;-80
2023/03/31 13:29:20;;;;;;;3.20;1.23;;;;;;;;;;5010904;28;20046;-80
2023/03/31 13:32:09;;;;;;;2.75;1.02;;;;;;;;;;5017667;28;20099;-80
2023/03/31 13:34:42;;;;;;;4.13;1.00;;;;;;;;;;5016911;28;20042;-80
2023/03/31 13:37:17;;;;;;;5.88;1.00;;;;;;;;;;5019822;28;20077;-80
2023/03/31 13:40:18;;;;;;;2.45;1.13;;;;;;;;;;5007594;28;20114;-82
2023/03/31 13:43:10;;;;;;;5.47;1.10;;;;;;;;;;5001690;28;20093;-81
2023/03/31 13:45:59;;;;;;;3.75;1.27;;;;;;;;;;5016765;28;20053;-79
2023/03/31 13:48:47;;;;;;;4.53;1.25;;;;;;;;;;5010556;28;20077;-79
2023/03/31 13:51:23;;;;;;;3.50;1.40;;;;;;;;;;5022727;28;20101;-79
2023/03/31 13:54:20;;;;;;;3.47;1.00;;;;;;;;;;5018395;28;20050;-80
2023/03/31 13:57:22;;;;;;;5.40;1.10;;;;;;;;;;4977098;28;20049;-80
2023/03/31 14:00:13;;;;;;;5.35;1.33;;;;;;;;;;5020792;28;20073;-82
2023/03/31 14:03:16;;;;;;;3.03;0.98;;;;;;;;;;5013838;28;20060;-79
2023/03/31 14:05:45;;;;;;;2.83;0.80;;;;;;;;;;5019546;28;20046;-79
2023/03/31 14:08:19;;;;;;;2.70;0.70;;;;;;;;;;5021465;28;20081;-79
2023/03/31 14:10:46;;;;;;;3.05;0.73;;;;;;;;;;5021774;28;20046;-78
2023/03/31 14:13:14;;;;;;;2.90;0.80;;;;;;;;;;5017948;28;20049;-80
2023/03/31 14:15:47;;;;;;;2.53;1.10;;;;;;;;;;5016779;28;20145;-78
2023/03/31 14:18:18;;;;;;;2.83;0.90;;;;;;;;;;5018175;28;20054;-78
2023/03/31 14:20:56;;;;;;;3.53;0.93;;;;;;;;;;5018228;28;20141;-79
2023/03/31 14:23:43;;;;;;;2.50;0.80;;;;;;;;;;5020009;28;20519;-78
2023/03/31 14:26:18;;;;;;;2.03;0.80;;;;;;;;;;5020276;28;20056;-78
2023/03/31 14:28:59;;;;;;;3.00;1.27;;;;;;;;;;5016940;28;20065;-79
2023/03/31 14:31:33;;;;;;;2.60;0.85;;;;;;;;;;5020925;28;20057;-79
2023/03/31 14:34:18;;;;;;;3.05;1.00;;;;;;;;;;5018780;28;20042;-79
2023/03/31 14:36:56;;;;;;;4.53;0.80;;;;;;;;;;5021178;28;20049;-77
2023/03/31 14:39:27;;;;;;;3.45;1.17;;;;;;;;;;5013152;28;20222;-80
2023/03/31 14:41:56;;;;;;;3.20;0.90;;;;;;;;;;5009347;28;20058;-79
2023/03/31 14:44:25;;;;;;;4.80;1.20;;;;;;;;;;5018785;28;20084;-78
2023/03/31 14:46:52;;;;;;;5.97;2.10;;;;;;;;;;5019699;28;20054;-79
2023/03/31 14:49:22;;;;;;;4.70;1.30;;;;;;;;;;5019731;28;20078;-82
2023/03/31 14:51:49;;;;;;;2.70;1.33;;;;;;;;;;5018094;28;20069;-79
2023/03/31 14:54:18;;;;;;;2.30;0.88;;;;;;;;;;5018622;28;20080;-78
2023/03/31 14:56:49;;;;;;;4.93;1.02;;;;;;;;;;5008384;28;20042;-79
2023/03/31 14:59:20;;;;;;;3.13;0.90;;;;;;;;;;5018539;28;20492;-79
2023/03/31 15:01:49;;;;;;;3.60;1.13;;;;;;;;;;5019732;28;20057;-80
2023/03/31 15:04:19;;;;;;;2.63;0.70;;;;;;;;;;5000690;28;20046;-80
2023/03/31 15:06:48;;;;;;;2.40;0.77;;;;;;;;;;4997707;28;20085;-78